Time;durP1;ratioP1;P1;durP2;ratioP2;P2;SDS_P1;SDS_P2;PMS_P1;PMS_P2;Temp;Humidity;BMP_temperature;BMP_pressure;BME280_temperature;BME280_humidity;BME280_pressure;Samples;Min_cycle;Max_cycle;Signal;HPM_P1;HPM_P2
2022/03/14 00:00:58;;;;;;;84.53;26.70;;;;;;;;;;4969085;28;20057;-62
2022/03/14 00:03:25;;;;;;;89.28;27.13;;;;;;;;;;4968799;28;20037;-62
2022/03/14 00:05:51;;;;;;;89.32;25.65;;;;;;;;;;4969022;28;20456;-62
2022/03/14 00:08:18;;;;;;;85.60;26.55;;;;;;;;;;4969246;28;20455;-61
2022/03/14 00:10:45;;;;;;;90.50;27.00;;;;;;;;;;4968536;28;20503;-62
2022/03/14 00:13:11;;;;;;;83.15;24.90;;;;;;;;;;4969015;28;20337;-62
2022/03/14 00:15:40;;;;;;;87.00;24.85;;;;;;;;;;4968750;28;20065;-62
2022/03/14 00:18:07;;;;;;;89.70;26.38;;;;;;;;;;4969422;28;20559;-62
2022/03/14 00:20:33;;;;;;;89.85;25.80;;;;;;;;;;4968532;28;20455;-62
2022/03/14 00:22:59;;;;;;;81.63;25.52;;;;;;;;;;4968956;28;20449;-63
2022/03/14 00:25:24;;;;;;;95.03;28.27;;;;;;;;;;4968382;28;20337;-62
2022/03/14 00:27:49;;;;;;;90.00;25.67;;;;;;;;;;4968917;28;20348;-61
2022/03/14 00:30:15;;;;;;;73.00;25.25;;;;;;;;;;4968603;28;20486;-62
2022/03/14 00:32:41;;;;;;;95.70;26.88;;;;;;;;;;4968661;28;20375;-61
2022/03/14 00:35:07;;;;;;;87.88;26.98;;;;;;;;;;4969205;28;20349;-61
2022/03/14 00:37:34;;;;;;;90.88;26.92;;;;;;;;;;4968217;28;20433;-62
2022/03/14 00:40:00;;;;;;;90.28;26.73;;;;;;;;;;4969337;28;20395;-62
2022/03/14 00:42:25;;;;;;;90.95;27.70;;;;;;;;;;4968301;28;20410;-62
2022/03/14 00:44:51;;;;;;;79.38;25.05;;;;;;;;;;4968978;28;20626;-61
2022/03/14 00:47:17;;;;;;;92.35;26.15;;;;;;;;;;4967880;28;20453;-62
2022/03/14 00:49:46;;;;;;;79.60;24.45;;;;;;;;;;4969027;28;20322;-62
2022/03/14 00:52:11;;;;;;;83.30;25.45;;;;;;;;;;4969808;28;20480;-62
2022/03/14 00:54:37;;;;;;;78.80;25.25;;;;;;;;;;4968604;28;20470;-62
2022/03/14 00:57:03;;;;;;;81.82;28.55;;;;;;;;;;4971421;28;20037;-62
2022/03/14 00:59:28;;;;;;;83.30;24.58;;;;;;;;;;4971804;28;20605;-62
2022/03/14 01:01:54;;;;;;;88.97;25.83;;;;;;;;;;4964778;28;20388;-62
2022/03/14 01:04:20;;;;;;;73.30;24.25;;;;;;;;;;4971874;28;20367;-62
2022/03/14 01:06:45;;;;;;;73.20;25.02;;;;;;;;;;4954191;28;20356;-62
2022/03/14 01:09:14;;;;;;;86.75;26.30;;;;;;;;;;4971644;28;20383;-62
2022/03/14 01:11:41;;;;;;;79.80;24.63;;;;;;;;;;4971389;28;20060;-62
2022/03/14 01:14:06;;;;;;;62.03;23.27;;;;;;;;;;4971916;28;20418;-62
2022/03/14 01:16:32;;;;;;;81.60;26.38;;;;;;;;;;4971324;28;20439;-61
2022/03/14 01:18:57;;;;;;;72.97;23.48;;;;;;;;;;4971890;28;20150;-62
2022/03/14 01:21:24;;;;;;;71.63;25.10;;;;;;;;;;4972342;28;20349;-62
2022/03/14 01:23:49;;;;;;;79.80;26.88;;;;;;;;;;4972443;28;20325;-61
2022/03/14 01:26:15;;;;;;;82.57;25.13;;;;;;;;;;4972528;28;20026;-62
2022/03/14 01:28:40;;;;;;;72.68;24.73;;;;;;;;;;4971463;28;20385;-61
2022/03/14 01:31:05;;;;;;;69.93;24.10;;;;;;;;;;4972219;28;20445;-62
2022/03/14 01:33:31;;;;;;;74.45;22.58;;;;;;;;;;4971190;28;20368;-62
2022/03/14 01:35:56;;;;;;;63.80;22.33;;;;;;;;;;4971789;28;20375;-61
2022/03/14 01:38:21;;;;;;;64.40;22.45;;;;;;;;;;4971235;28;20456;-61
2022/03/14 01:40:47;;;;;;;75.90;25.13;;;;;;;;;;4971102;28;20180;-62
2022/03/14 01:43:12;;;;;;;67.22;23.70;;;;;;;;;;4970939;28;20425;-62
2022/03/14 01:45:37;;;;;;;79.47;23.13;;;;;;;;;;4971459;28;20395;-61
2022/03/14 01:48:05;;;;;;;57.45;20.13;;;;;;;;;;4970593;28;20468;-62
2022/03/14 01:50:32;;;;;;;59.35;22.02;;;;;;;;;;4971946;28;20487;-62
2022/03/14 01:52:57;;;;;;;61.65;20.13;;;;;;;;;;4971718;28;20352;-61
2022/03/14 01:55:22;;;;;;;66.85;20.63;;;;;;;;;;4971462;28;20025;-62
2022/03/14 01:57:48;;;;;;;66.53;21.98;;;;;;;;;;4970565;28;20453;-61
2022/03/14 02:00:13;;;;;;;60.30;21.90;;;;;;;;;;4971065;28;20574;-62
2022/03/14 02:02:38;;;;;;;62.92;19.27;;;;;;;;;;4970472;28;20463;-62
2022/03/14 02:05:05;;;;;;;56.05;21.38;;;;;;;;;;4971211;28;20318;-61
2022/03/14 02:07:31;;;;;;;60.95;19.25;;;;;;;;;;4971266;28;20313;-61
2022/03/14 02:09:58;;;;;;;47.15;19.92;;;;;;;;;;4970656;28;20337;-64
2022/03/14 02:12:24;;;;;;;59.88;20.38;;;;;;;;;;4970630;28;20421;-62
2022/03/14 02:14:50;;;;;;;52.95;17.50;;;;;;;;;;4972243;28;20479;-62
2022/03/14 02:17:17;;;;;;;61.42;21.02;;;;;;;;;;4970058;28;20368;-62
2022/03/14 02:19:43;;;;;;;61.47;22.23;;;;;;;;;;4970300;28;20621;-62
2022/03/14 02:22:13;;;;;;;63.20;20.40;;;;;;;;;;4970647;28;20406;-62
2022/03/14 02:24:44;;;;;;;52.63;20.27;;;;;;;;;;4970323;28;20425;-62
2022/03/14 02:27:11;;;;;;;61.13;20.98;;;;;;;;;;4970269;28;20441;-61
2022/03/14 02:29:37;;;;;;;61.60;19.60;;;;;;;;;;4970378;28;20033;-61
2022/03/14 02:32:02;;;;;;;58.75;18.48;;;;;;;;;;4970184;28;20044;-61
2022/03/14 02:34:28;;;;;;;53.38;19.27;;;;;;;;;;4970397;28;20437;-62
2022/03/14 02:36:53;;;;;;;44.47;18.85;;;;;;;;;;4970249;28;20456;-62
2022/03/14 02:39:18;;;;;;;55.42;19.83;;;;;;;;;;4969998;28;20516;-62
2022/03/14 02:41:44;;;;;;;47.17;18.25;;;;;;;;;;4969840;28;20029;-62
2022/03/14 02:44:09;;;;;;;50.95;19.02;;;;;;;;;;4969896;28;20514;-61
2022/03/14 02:46:38;;;;;;;55.40;19.67;;;;;;;;;;4969872;28;20301;-62
2022/03/14 02:49:04;;;;;;;48.67;18.80;;;;;;;;;;4970026;28;20524;-61
2022/03/14 02:51:30;;;;;;;45.30;17.92;;;;;;;;;;4969956;28;20324;-61
2022/03/14 02:53:56;;;;;;;45.13;18.35;;;;;;;;;;4970209;28;20389;-61
2022/03/14 02:56:22;;;;;;;48.17;17.95;;;;;;;;;;4969980;28;20332;-61
2022/03/14 02:58:51;;;;;;;54.15;17.55;;;;;;;;;;4970453;28;20341;-62
2022/03/14 03:01:17;;;;;;;55.08;18.52;;;;;;;;;;4969371;28;20087;-62
2022/03/14 03:03:43;;;;;;;55.15;18.83;;;;;;;;;;4971242;28;20448;-62
2022/03/14 03:06:11;;;;;;;56.22;18.17;;;;;;;;;;4969297;28;20108;-62
2022/03/14 03:08:37;;;;;;;52.30;18.00;;;;;;;;;;4970140;28;20333;-62
2022/03/14 03:11:04;;;;;;;46.05;18.77;;;;;;;;;;4969284;28;20330;-62
2022/03/14 03:13:29;;;;;;;48.17;18.80;;;;;;;;;;4968706;28;20372;-61
2022/03/14 03:15:55;;;;;;;47.30;18.02;;;;;;;;;;4969332;28;20294;-62
2022/03/14 03:18:20;;;;;;;49.42;17.80;;;;;;;;;;4951872;28;20539;-62
2022/03/14 03:20:45;;;;;;;45.42;16.40;;;;;;;;;;4968524;28;20379;-62
2022/03/14 03:23:11;;;;;;;46.33;16.25;;;;;;;;;;4969539;28;20441;-62
2022/03/14 03:25:36;;;;;;;46.15;16.55;;;;;;;;;;4969241;28;20433;-62
2022/03/14 03:28:01;;;;;;;39.88;16.50;;;;;;;;;;4969486;28;20425;-61
2022/03/14 03:30:27;;;;;;;50.13;18.45;;;;;;;;;;4969498;28;20464;-62
2022/03/14 03:32:52;;;;;;;38.35;14.77;;;;;;;;;;4969009;28;20136;-62
2022/03/14 03:35:18;;;;;;;42.08;16.05;;;;;;;;;;4968985;28;20421;-61
2022/03/14 03:37:43;;;;;;;49.97;17.58;;;;;;;;;;4969200;28;20037;-62
2022/03/14 03:40:09;;;;;;;44.05;17.35;;;;;;;;;;4968815;28;20472;-62
2022/03/14 03:42:34;;;;;;;43.38;16.52;;;;;;;;;;4969350;28;20502;-62
2022/03/14 03:45:00;;;;;;;46.20;16.10;;;;;;;;;;4969164;28;20523;-63
2022/03/14 03:47:25;;;;;;;42.03;17.90;;;;;;;;;;4969621;28;20417;-61
2022/03/14 03:49:51;;;;;;;42.03;16.63;;;;;;;;;;4969666;28;20399;-62
2022/03/14 03:52:16;;;;;;;37.40;17.25;;;;;;;;;;4968864;28;20384;-63
2022/03/14 03:54:41;;;;;;;45.97;17.33;;;;;;;;;;4969038;28;20451;-62
2022/03/14 03:57:07;;;;;;;40.67;15.73;;;;;;;;;;4968615;28;20495;-62
2022/03/14 03:59:32;;;;;;;39.35;15.57;;;;;;;;;;4969231;28;20461;-61
2022/03/14 04:01:58;;;;;;;41.13;15.20;;;;;;;;;;4969588;28;20029;-62
2022/03/14 04:04:23;;;;;;;38.50;15.73;;;;;;;;;;4968896;28;20412;-62
2022/03/14 04:06:56;;;;;;;41.88;15.27;;;;;;;;;;4969276;28;20496;-62
2022/03/14 04:09:21;;;;;;;44.70;17.02;;;;;;;;;;4968835;28;20395;-63
2022/03/14 04:11:48;;;;;;;41.00;16.38;;;;;;;;;;4969122;28;20021;-62
2022/03/14 04:14:14;;;;;;;39.60;16.70;;;;;;;;;;4968174;28;20467;-61
2022/03/14 04:16:41;;;;;;;43.70;15.55;;;;;;;;;;4968479;28;20443;-62
2022/03/14 04:19:06;;;;;;;38.80;14.38;;;;;;;;;;4969701;28;20409;-62
2022/03/14 04:21:35;;;;;;;39.67;15.18;;;;;;;;;;4968975;28;20579;-61
2022/03/14 04:24:01;;;;;;;33.88;14.88;;;;;;;;;;4968947;28;20615;-61
2022/03/14 04:26:27;;;;;;;35.90;16.30;;;;;;;;;;4968870;28;20460;-62
2022/03/14 04:28:53;;;;;;;41.30;16.42;;;;;;;;;;4970407;28;20488;-61
2022/03/14 04:31:21;;;;;;;35.63;14.70;;;;;;;;;;4972571;28;20491;-62
2022/03/14 04:33:46;;;;;;;39.95;16.35;;;;;;;;;;4972619;28;20306;-61
2022/03/14 04:36:12;;;;;;;43.80;15.77;;;;;;;;;;4972199;28;20379;-62
2022/03/14 04:38:37;;;;;;;32.85;14.05;;;;;;;;;;4972405;28;20391;-61
2022/03/14 04:41:02;;;;;;;33.80;15.23;;;;;;;;;;4972318;28;20392;-62
2022/03/14 04:43:28;;;;;;;35.72;14.55;;;;;;;;;;4972518;28;20470;-62
2022/03/14 04:45:53;;;;;;;34.38;14.18;;;;;;;;;;4972062;28;20364;-62
2022/03/14 04:48:18;;;;;;;38.25;14.93;;;;;;;;;;4971982;28;20348;-61
2022/03/14 04:50:44;;;;;;;34.40;14.88;;;;;;;;;;4971905;28;20474;-62
2022/03/14 04:53:09;;;;;;;34.25;15.00;;;;;;;;;;4972024;28;20341;-62
2022/03/14 04:55:36;;;;;;;34.42;13.75;;;;;;;;;;4971794;28;20380;-62
2022/03/14 04:58:02;;;;;;;34.40;14.98;;;;;;;;;;4972513;28;20344;-62
2022/03/14 05:00:28;;;;;;;36.10;15.00;;;;;;;;;;4973385;28;20071;-62
2022/03/14 05:03:03;;;;;;;39.97;14.98;;;;;;;;;;4972368;28;20520;-61
2022/03/14 05:05:29;;;;;;;34.83;14.20;;;;;;;;;;4966470;28;20360;-61
2022/03/14 05:07:55;;;;;;;33.08;13.13;;;;;;;;;;4971748;28;20352;-62
2022/03/14 05:10:20;;;;;;;35.50;14.13;;;;;;;;;;4971941;28;20294;-62
2022/03/14 05:12:46;;;;;;;32.33;14.45;;;;;;;;;;4972602;28;20092;-61
2022/03/14 05:15:11;;;;;;;42.63;14.60;;;;;;;;;;4971910;28;20376;-62
2022/03/14 05:17:36;;;;;;;32.50;14.57;;;;;;;;;;4953861;28;20449;-62
2022/03/14 05:20:03;;;;;;;35.08;13.70;;;;;;;;;;4971710;28;20154;-61
2022/03/14 05:22:28;;;;;;;35.85;15.30;;;;;;;;;;4971239;28;20022;-64
2022/03/14 05:24:54;;;;;;;31.40;14.45;;;;;;;;;;4971656;28;20437;-61
2022/03/14 05:27:19;;;;;;;33.53;14.32;;;;;;;;;;4971257;28;20444;-62
2022/03/14 05:29:44;;;;;;;32.78;14.40;;;;;;;;;;4972316;28;20369;-61
2022/03/14 05:32:09;;;;;;;33.53;13.95;;;;;;;;;;4971111;28;20511;-61
2022/03/14 05:34:35;;;;;;;31.98;13.90;;;;;;;;;;4972799;28;20383;-61
2022/03/14 05:37:01;;;;;;;29.48;14.35;;;;;;;;;;4971444;28;20389;-61
2022/03/14 05:39:26;;;;;;;36.58;14.57;;;;;;;;;;4954775;28;20368;-61
2022/03/14 05:41:52;;;;;;;41.85;15.45;;;;;;;;;;4952335;28;20460;-62
2022/03/14 05:44:17;;;;;;;34.72;15.85;;;;;;;;;;4971026;28;20397;-61
2022/03/14 05:46:42;;;;;;;36.42;14.43;;;;;;;;;;4970651;28;20519;-62
2022/03/14 05:49:08;;;;;;;36.20;14.38;;;;;;;;;;4971053;28;20421;-62
2022/03/14 05:51:34;;;;;;;40.70;15.23;;;;;;;;;;4970640;28;20349;-62
2022/03/14 05:53:59;;;;;;;39.63;16.13;;;;;;;;;;4971792;28;20348;-62
2022/03/14 05:56:25;;;;;;;40.30;16.88;;;;;;;;;;4970739;28;20322;-62
2022/03/14 05:58:51;;;;;;;37.05;14.55;;;;;;;;;;4971246;28;20318;-62
2022/03/14 06:01:16;;;;;;;35.80;15.23;;;;;;;;;;4971157;28;20532;-61
2022/03/14 06:03:41;;;;;;;35.47;15.00;;;;;;;;;;4970846;28;20383;-62
2022/03/14 06:06:07;;;;;;;41.92;15.70;;;;;;;;;;4970445;28;20433;-62
2022/03/14 06:08:32;;;;;;;39.15;16.38;;;;;;;;;;4971789;28;20546;-62
2022/03/14 06:10:58;;;;;;;36.80;14.93;;;;;;;;;;4952390;28;20460;-62
2022/03/14 06:13:24;;;;;;;36.13;14.32;;;;;;;;;;4970302;28;20365;-62
2022/03/14 06:15:49;;;;;;;38.38;16.30;;;;;;;;;;4971634;28;20091;-62
2022/03/14 06:18:14;;;;;;;31.17;14.98;;;;;;;;;;4970387;28;20107;-62
2022/03/14 06:20:40;;;;;;;39.45;16.27;;;;;;;;;;4970743;28;20352;-62
2022/03/14 06:23:05;;;;;;;32.17;15.60;;;;;;;;;;4970832;28;20482;-62
2022/03/14 06:25:31;;;;;;;33.35;14.75;;;;;;;;;;4970360;28;20383;-63
2022/03/14 06:27:56;;;;;;;39.15;15.80;;;;;;;;;;4968755;28;20405;-62
2022/03/14 06:30:22;;;;;;;37.53;15.38;;;;;;;;;;4970827;28;20412;-62
2022/03/14 06:32:48;;;;;;;34.70;14.50;;;;;;;;;;4970523;28;20437;-62
2022/03/14 06:35:15;;;;;;;39.22;15.02;;;;;;;;;;4970406;28;20460;-62
2022/03/14 06:37:40;;;;;;;33.40;14.38;;;;;;;;;;4970281;28;20482;-61
2022/03/14 06:40:06;;;;;;;38.13;14.65;;;;;;;;;;4969958;28;20419;-63
2022/03/14 06:42:32;;;;;;;36.95;14.82;;;;;;;;;;4970214;28;20380;-62
2022/03/14 06:45:03;;;;;;;35.67;14.90;;;;;;;;;;4970056;28;20385;-62
2022/03/14 06:47:28;;;;;;;37.13;14.38;;;;;;;;;;4970222;28;20550;-62
2022/03/14 06:49:54;;;;;;;36.15;15.05;;;;;;;;;;4969937;28;20476;-62
2022/03/14 06:52:19;;;;;;;35.60;15.50;;;;;;;;;;4969366;28;20426;-63
2022/03/14 06:54:45;;;;;;;33.15;13.65;;;;;;;;;;4970656;28;20432;-62
2022/03/14 06:57:10;;;;;;;35.72;15.38;;;;;;;;;;4970583;28;20483;-62
2022/03/14 06:59:36;;;;;;;32.22;14.40;;;;;;;;;;4970076;28;20341;-62
2022/03/14 07:02:03;;;;;;;35.65;14.57;;;;;;;;;;4969484;28;20368;-62
2022/03/14 07:04:29;;;;;;;32.60;14.55;;;;;;;;;;4971660;28;20357;-62
2022/03/14 07:06:54;;;;;;;34.60;13.85;;;;;;;;;;4971144;28;20411;-62
2022/03/14 07:09:19;;;;;;;30.45;13.65;;;;;;;;;;4969974;28;20481;-64
2022/03/14 07:11:45;;;;;;;34.75;14.35;;;;;;;;;;4969375;28;20104;-62
2022/03/14 07:14:10;;;;;;;35.13;13.48;;;;;;;;;;4969985;28;20433;-62
2022/03/14 07:16:36;;;;;;;31.15;12.90;;;;;;;;;;4969740;28;20389;-62
2022/03/14 07:19:01;;;;;;;41.25;13.73;;;;;;;;;;4969628;28;20049;-63
2022/03/14 07:21:29;;;;;;;33.28;12.60;;;;;;;;;;4951591;28;20440;-63
2022/03/14 07:23:55;;;;;;;31.10;13.95;;;;;;;;;;4968976;28;20453;-63
2022/03/14 07:26:21;;;;;;;28.13;13.23;;;;;;;;;;4969734;28;20363;-62
2022/03/14 07:28:48;;;;;;;29.55;14.32;;;;;;;;;;4969563;28;20404;-63
2022/03/14 07:31:13;;;;;;;29.80;12.65;;;;;;;;;;4969977;28;20535;-62
2022/03/14 07:33:39;;;;;;;35.95;14.25;;;;;;;;;;4969341;28;20421;-62
2022/03/14 07:36:04;;;;;;;32.80;13.73;;;;;;;;;;4969082;28;20087;-62
2022/03/14 07:38:29;;;;;;;31.90;13.45;;;;;;;;;;4970464;28;20030;-63
2022/03/14 07:40:55;;;;;;;27.98;11.68;;;;;;;;;;4967560;28;20029;-62
2022/03/14 07:43:21;;;;;;;28.90;12.32;;;;;;;;;;4969156;28;20090;-63
2022/03/14 07:45:46;;;;;;;32.15;15.02;;;;;;;;;;4969172;28;20384;-63
2022/03/14 07:48:13;;;;;;;30.05;12.55;;;;;;;;;;4969121;28;20382;-62
2022/03/14 07:50:39;;;;;;;32.33;12.82;;;;;;;;;;4968692;28;20495;-63
2022/03/14 07:53:06;;;;;;;35.17;13.38;;;;;;;;;;4969556;28;20033;-63
2022/03/14 07:55:31;;;;;;;28.95;12.43;;;;;;;;;;4969630;28;20344;-62
2022/03/14 07:57:57;;;;;;;27.40;12.30;;;;;;;;;;4968685;28;20329;-63
2022/03/14 08:00:22;;;;;;;28.23;12.80;;;;;;;;;;4969528;28;20409;-63
2022/03/14 08:02:48;;;;;;;34.13;13.95;;;;;;;;;;4968955;28;20356;-63
2022/03/14 08:05:15;;;;;;;31.10;12.68;;;;;;;;;;4954111;28;20318;-63
2022/03/14 08:07:45;;;;;;;33.75;14.40;;;;;;;;;;4973576;28;20356;-63
2022/03/14 08:10:11;;;;;;;31.67;14.05;;;;;;;;;;4972810;28;20026;-62
2022/03/14 08:12:54;;;;;;;33.58;12.98;;;;;;;;;;4972796;28;20064;-63
2022/03/14 08:15:24;;;;;;;30.35;13.60;;;;;;;;;;4964824;28;20034;-63
2022/03/14 08:17:50;;;;;;;38.40;14.23;;;;;;;;;;4972596;28;20306;-63
2022/03/14 08:20:16;;;;;;;32.83;13.57;;;;;;;;;;4973329;28;20021;-63
2022/03/14 08:22:42;;;;;;;30.52;14.02;;;;;;;;;;4973522;28;20056;-63
2022/03/14 08:25:08;;;;;;;39.97;13.45;;;;;;;;;;4961697;28;20326;-63
2022/03/14 08:27:33;;;;;;;38.88;13.90;;;;;;;;;;4975136;28;20432;-62
2022/03/14 08:29:59;;;;;;;37.65;13.30;;;;;;;;;;4974306;28;20341;-63
2022/03/14 08:32:24;;;;;;;33.75;13.70;;;;;;;;;;4973205;28;20341;-63
2022/03/14 08:34:52;;;;;;;39.97;13.60;;;;;;;;;;4967340;28;20437;-63
2022/03/14 08:37:19;;;;;;;31.90;14.05;;;;;;;;;;4972403;28;20320;-63
2022/03/14 08:39:46;;;;;;;33.97;13.10;;;;;;;;;;4972477;28;20436;-63
2022/03/14 08:42:11;;;;;;;33.38;13.70;;;;;;;;;;4971807;28;20528;-62
2022/03/14 08:44:37;;;;;;;34.60;12.82;;;;;;;;;;4972381;28;20104;-63
2022/03/14 08:47:03;;;;;;;41.28;14.05;;;;;;;;;;4972720;28;20389;-63
2022/03/14 08:49:34;;;;;;;38.25;12.93;;;;;;;;;;4972130;28;20527;-63
2022/03/14 08:52:00;;;;;;;33.40;12.25;;;;;;;;;;4973561;28;20368;-62
2022/03/14 08:54:25;;;;;;;34.10;13.75;;;;;;;;;;4972099;28;20033;-63
2022/03/14 08:56:51;;;;;;;34.05;12.43;;;;;;;;;;4972577;28;20072;-62
2022/03/14 08:59:17;;;;;;;30.63;12.52;;;;;;;;;;4972006;28;20512;-63
2022/03/14 09:01:42;;;;;;;37.70;13.38;;;;;;;;;;4971823;28;20375;-62
2022/03/14 09:04:07;;;;;;;32.13;13.32;;;;;;;;;;4972014;28;20425;-63
2022/03/14 09:06:36;;;;;;;25.50;12.07;;;;;;;;;;4971964;28;20521;-63
2022/03/14 09:09:03;;;;;;;37.55;14.20;;;;;;;;;;4972212;28;20504;-64
2022/03/14 09:11:28;;;;;;;33.05;12.30;;;;;;;;;;4971354;28;20520;-63
2022/03/14 09:13:53;;;;;;;30.58;12.25;;;;;;;;;;4971643;28;20437;-63
2022/03/14 09:16:19;;;;;;;40.20;13.10;;;;;;;;;;4971763;28;20472;-63
2022/03/14 09:18:45;;;;;;;29.80;11.50;;;;;;;;;;4971791;28;20413;-63
2022/03/14 09:21:12;;;;;;;30.08;11.57;;;;;;;;;;4971554;28;20445;-63
2022/03/14 09:23:38;;;;;;;29.52;11.63;;;;;;;;;;4953991;28;20542;-63
2022/03/14 09:26:03;;;;;;;32.80;12.25;;;;;;;;;;4971502;28;20415;-63
2022/03/14 09:28:29;;;;;;;33.95;12.85;;;;;;;;;;4971328;28;20423;-65
2022/03/14 09:30:55;;;;;;;32.47;13.82;;;;;;;;;;4971258;28;20400;-64
2022/03/14 09:33:21;;;;;;;24.50;10.60;;;;;;;;;;4973205;28;20344;-63
2022/03/14 09:35:46;;;;;;;29.20;11.27;;;;;;;;;;4971928;28;20492;-63
2022/03/14 09:38:14;;;;;;;29.85;11.75;;;;;;;;;;4971114;28;20506;-63
2022/03/14 09:40:39;;;;;;;28.25;11.00;;;;;;;;;;4965318;28;20433;-62
2022/03/14 09:43:05;;;;;;;30.05;11.73;;;;;;;;;;4969707;28;20456;-63
2022/03/14 09:45:32;;;;;;;25.45;10.45;;;;;;;;;;4971252;28;20499;-63
2022/03/14 09:47:59;;;;;;;28.98;11.32;;;;;;;;;;4970345;28;20071;-63
2022/03/14 09:50:36;;;;;;;25.63;11.13;;;;;;;;;;4971276;28;20424;-63
2022/03/14 09:53:09;;;;;;;24.90;10.25;;;;;;;;;;4953165;28;20425;-63
2022/03/14 09:55:40;;;;;;;27.20;10.98;;;;;;;;;;4970932;28;20511;-63
2022/03/14 09:58:07;;;;;;;25.13;9.73;;;;;;;;;;4971104;28;20448;-63
2022/03/14 10:00:32;;;;;;;26.88;11.57;;;;;;;;;;4971041;28;20472;-63
2022/03/14 10:02:57;;;;;;;27.02;10.52;;;;;;;;;;4970933;28;20352;-63
2022/03/14 10:05:24;;;;;;;30.83;11.38;;;;;;;;;;4971100;28;20453;-63
2022/03/14 10:07:50;;;;;;;21.75;9.43;;;;;;;;;;4970573;28;20515;-63
2022/03/14 10:10:16;;;;;;;23.58;10.07;;;;;;;;;;4970550;28;20060;-64
2022/03/14 10:12:43;;;;;;;26.83;10.68;;;;;;;;;;4971137;28;20029;-62
2022/03/14 10:15:09;;;;;;;21.33;9.70;;;;;;;;;;4953731;28;20332;-63
2022/03/14 10:17:35;;;;;;;23.00;10.15;;;;;;;;;;4979283;28;20314;-63
2022/03/14 10:20:01;;;;;;;21.48;9.40;;;;;;;;;;4971285;28;20356;-64
2022/03/14 10:22:34;;;;;;;24.63;10.20;;;;;;;;;;4970882;28;20084;-63
2022/03/14 10:25:03;;;;;;;20.35;9.38;;;;;;;;;;4969904;28;20429;-62
2022/03/14 10:27:28;;;;;;;21.17;9.35;;;;;;;;;;4962146;28;20462;-63
2022/03/14 10:29:54;;;;;;;25.15;9.63;;;;;;;;;;4970204;28;20112;-63
2022/03/14 10:32:31;;;;;;;22.27;10.48;;;;;;;;;;4970157;28;20456;-64
2022/03/14 10:35:05;;;;;;;23.30;9.05;;;;;;;;;;4970192;28;20354;-64
2022/03/14 10:37:31;;;;;;;22.20;8.30;;;;;;;;;;4970058;28;20029;-63
2022/03/14 10:39:58;;;;;;;22.58;9.48;;;;;;;;;;4970318;28;20548;-65
2022/03/14 10:42:23;;;;;;;24.40;9.30;;;;;;;;;;4970004;28;20499;-63
2022/03/14 10:44:49;;;;;;;17.98;7.75;;;;;;;;;;4969962;28;20420;-63
2022/03/14 10:47:15;;;;;;;19.48;8.85;;;;;;;;;;4969344;28;20486;-63
2022/03/14 10:49:43;;;;;;;18.50;7.78;;;;;;;;;;4963453;28;20385;-63
2022/03/14 10:52:10;;;;;;;27.05;8.18;;;;;;;;;;4969893;28;20507;-63
2022/03/14 10:54:37;;;;;;;20.48;8.40;;;;;;;;;;4970239;28;20349;-63
2022/03/14 10:57:20;;;;;;;21.27;9.25;;;;;;;;;;4970141;28;20313;-63
2022/03/14 10:59:48;;;;;;;21.15;8.10;;;;;;;;;;4969755;28;20425;-63
2022/03/14 11:02:33;;;;;;;16.95;7.75;;;;;;;;;;4970157;28;20427;-63
2022/03/14 11:04:59;;;;;;;20.73;8.02;;;;;;;;;;4969020;28;20664;-64
2022/03/14 11:07:27;;;;;;;20.35;7.82;;;;;;;;;;4977774;28;20487;-63
2022/03/14 11:09:56;;;;;;;20.40;6.90;;;;;;;;;;4969558;28;20128;-63
2022/03/14 11:12:22;;;;;;;18.33;7.68;;;;;;;;;;4969519;28;20022;-63
2022/03/14 11:15:03;;;;;;;16.95;7.78;;;;;;;;;;4969712;28;20432;-65
2022/03/14 11:17:30;;;;;;;16.90;6.93;;;;;;;;;;4970196;28;20059;-64
2022/03/14 11:19:58;;;;;;;14.95;5.90;;;;;;;;;;4969532;28;20388;-63
2022/03/14 11:22:26;;;;;;;16.90;7.60;;;;;;;;;;4969325;28;20421;-63
2022/03/14 11:24:53;;;;;;;19.23;7.47;;;;;;;;;;4971384;28;20455;-63
2022/03/14 11:27:21;;;;;;;17.00;7.25;;;;;;;;;;4969741;28;20333;-63
2022/03/14 11:29:48;;;;;;;18.58;7.15;;;;;;;;;;4969393;28;20459;-63
2022/03/14 11:32:15;;;;;;;20.58;7.10;;;;;;;;;;4969059;28;20326;-63
2022/03/14 11:34:42;;;;;;;19.17;7.25;;;;;;;;;;4970456;28;20083;-63
2022/03/14 11:37:07;;;;;;;14.38;6.80;;;;;;;;;;4969342;28;20373;-63
2022/03/14 11:39:33;;;;;;;18.10;6.68;;;;;;;;;;4968634;28;20450;-63
2022/03/14 11:41:59;;;;;;;15.60;6.38;;;;;;;;;;4969155;28;20452;-63
2022/03/14 11:44:24;;;;;;;16.45;6.72;;;;;;;;;;4969505;28;20084;-64
2022/03/14 11:46:52;;;;;;;15.95;7.05;;;;;;;;;;4963132;28;20325;-63
2022/03/14 11:49:18;;;;;;;14.27;6.32;;;;;;;;;;4968138;28;20352;-63
2022/03/14 11:51:43;;;;;;;16.17;6.65;;;;;;;;;;4969589;28;20362;-63
2022/03/14 11:54:13;;;;;;;15.77;5.93;;;;;;;;;;4969096;28;20411;-63
2022/03/14 11:56:54;;;;;;;13.95;6.25;;;;;;;;;;4962262;28;20415;-63
2022/03/14 11:59:31;;;;;;;16.65;6.68;;;;;;;;;;4970530;28;20405;-63
2022/03/14 12:01:58;;;;;;;17.20;6.18;;;;;;;;;;4968920;28;20116;-63
2022/03/14 12:04:31;;;;;;;14.05;6.18;;;;;;;;;;4969289;28;20505;-64
2022/03/14 12:06:57;;;;;;;15.70;6.05;;;;;;;;;;4969013;28;20391;-63
2022/03/14 12:09:25;;;;;;;17.75;6.68;;;;;;;;;;4968672;28;20318;-63
2022/03/14 12:12:16;;;;;;;16.73;6.47;;;;;;;;;;4969047;28;20444;-64
2022/03/14 12:14:50;;;;;;;14.95;6.43;;;;;;;;;;4961808;28;20449;-63
2022/03/14 12:17:16;;;;;;;11.85;5.32;;;;;;;;;;4968674;28;20033;-63
2022/03/14 12:19:47;;;;;;;22.55;6.45;;;;;;;;;;4969228;28;20675;-63
2022/03/14 12:22:37;;;;;;;12.38;5.85;;;;;;;;;;4968891;28;20449;-64
2022/03/14 12:25:04;;;;;;;10.18;5.40;;;;;;;;;;4968494;28;20494;-63
2022/03/14 12:27:34;;;;;;;13.38;6.18;;;;;;;;;;4968735;28;20456;-63
2022/03/14 12:30:15;;;;;;;12.50;5.85;;;;;;;;;;4969689;28;20445;-64
2022/03/14 12:32:48;;;;;;;15.70;6.50;;;;;;;;;;4968712;28;20041;-63
2022/03/14 12:35:17;;;;;;;10.80;5.38;;;;;;;;;;4969551;28;20310;-64
2022/03/14 12:37:42;;;;;;;13.02;5.57;;;;;;;;;;4969392;28;20041;-63
2022/03/14 12:40:12;;;;;;;10.82;4.57;;;;;;;;;;4969314;28;20092;-63
2022/03/14 12:42:42;;;;;;;12.02;5.30;;;;;;;;;;4969468;28;20034;-63
2022/03/14 12:45:24;;;;;;;12.82;6.03;;;;;;;;;;4969933;28;20479;-63
2022/03/14 12:47:51;;;;;;;14.40;6.10;;;;;;;;;;4967924;28;20488;-63
2022/03/14 12:50:44;;;;;;;13.90;5.65;;;;;;;;;;4969551;28;20100;-62
2022/03/14 12:53:15;;;;;;;14.40;5.45;;;;;;;;;;4972063;28;20376;-63
2022/03/14 12:55:45;;;;;;;11.38;4.88;;;;;;;;;;4972255;28;20408;-63
2022/03/14 12:58:17;;;;;;;10.80;5.38;;;;;;;;;;4973023;28;20462;-65
2022/03/14 13:00:42;;;;;;;13.05;5.97;;;;;;;;;;4971824;28;20578;-63
2022/03/14 13:03:09;;;;;;;10.32;5.13;;;;;;;;;;4972175;28;20441;-63
2022/03/14 13:05:39;;;;;;;11.95;5.07;;;;;;;;;;4964303;28;20355;-63
2022/03/14 13:08:05;;;;;;;14.70;5.75;;;;;;;;;;4973608;28;20060;-63
2022/03/14 13:10:57;;;;;;;12.38;6.32;;;;;;;;;;4971797;28;20030;-63
2022/03/14 13:13:25;;;;;;;15.20;5.63;;;;;;;;;;4969572;28;20551;-63
2022/03/14 13:16:17;;;;;;;10.73;5.38;;;;;;;;;;4971638;28;20440;-63
2022/03/14 13:18:48;;;;;;;10.18;4.93;;;;;;;;;;4971536;28;20348;-63
2022/03/14 13:21:14;;;;;;;11.45;5.40;;;;;;;;;;4971672;28;20363;-63
2022/03/14 13:23:40;;;;;;;12.10;5.07;;;;;;;;;;4972111;28;20392;-63
2022/03/14 13:26:06;;;;;;;9.52;4.80;;;;;;;;;;4972711;28;20364;-63
2022/03/14 13:28:32;;;;;;;11.85;5.00;;;;;;;;;;4971423;28;20440;-63
2022/03/14 13:30:59;;;;;;;11.13;5.28;;;;;;;;;;4971737;28;20421;-63
2022/03/14 13:33:27;;;;;;;12.88;5.55;;;;;;;;;;4971265;28;20455;-63
2022/03/14 13:35:54;;;;;;;12.75;5.82;;;;;;;;;;4971238;28;20487;-62
2022/03/14 13:38:29;;;;;;;12.35;5.50;;;;;;;;;;4971155;28;20134;-64
2022/03/14 13:40:55;;;;;;;8.48;4.57;;;;;;;;;;4971276;28;20443;-63
2022/03/14 13:43:21;;;;;;;10.18;5.10;;;;;;;;;;4953599;28;20429;-63
2022/03/14 13:45:46;;;;;;;14.30;4.97;;;;;;;;;;4971132;28;20453;-63
2022/03/14 13:48:11;;;;;;;10.50;5.25;;;;;;;;;;4971066;28;20061;-63
2022/03/14 13:50:47;;;;;;;14.43;5.45;;;;;;;;;;4971394;28;20464;-63
2022/03/14 13:53:22;;;;;;;9.15;4.90;;;;;;;;;;4971150;28;20637;-63
2022/03/14 13:55:54;;;;;;;12.65;5.35;;;;;;;;;;4971325;28;20357;-63
2022/03/14 13:58:26;;;;;;;10.43;4.20;;;;;;;;;;4970819;28;20314;-63
2022/03/14 14:00:53;;;;;;;11.65;4.93;;;;;;;;;;4971218;28;20355;-63
2022/03/14 14:03:25;;;;;;;8.27;3.88;;;;;;;;;;4970270;28;20083;-62
2022/03/14 14:05:51;;;;;;;11.50;5.35;;;;;;;;;;4981788;28;20400;-63
2022/03/14 14:08:34;;;;;;;10.65;4.68;;;;;;;;;;4971651;28;20325;-63
2022/03/14 14:10:59;;;;;;;10.00;5.05;;;;;;;;;;4970382;28;20377;-63
2022/03/14 14:13:26;;;;;;;9.52;4.22;;;;;;;;;;4970790;28;20356;-63
2022/03/14 14:15:52;;;;;;;9.52;4.85;;;;;;;;;;4970309;28;20433;-63
2022/03/14 14:18:25;;;;;;;7.90;3.92;;;;;;;;;;4970905;28;20336;-63
2022/03/14 14:20:51;;;;;;;15.32;4.43;;;;;;;;;;4971908;28;20440;-63